Glendive, MT

4:32 PM MDT on August 30, 2015 (GMT -0600)
Dawson Community | | Change Station
CLOSE
Current Station
Airport
Location: Glendive,
Elevation: 2457 ft
Nearby Weather Stations

Elev 2457 ft 47.14 °N, 104.81 °W | Updated 17 minutes ago

Clear
Clear
81 °F
Feels Like 81 °F
N
14
Wind Variable Wind from North
Gusts 17 mph

Today
High -- | Low -- °F
--% Chance of Precip.
Yesterday
High -- | Low -- °F
Precip. -- in
6:15 AM 7:42 PM
Full, 98% visible
Pressure 29.77 in
Visibility 10.0 miles
Clouds Clear
Dew Point 48 °F
Humidity 32%
Rainfall 0.00 in
Snow Depth Not available.
UV 4 out of 12
Pollen 9.70 out of 12
Air Quality Not available.
Flu Activity Not available.
METAR KGDV 302215Z AUTO 01012G15KT 10SM CLR 27/09 A2977 RMK AO1
Pressure 29.77 in
Visibility 10.0 miles
Clouds Clear
Dew Point 48 °F
Humidity 32%
Rainfall 0.00 in
Snow Depth Not available.
UV 4 out of 12
Pollen 9.70 out of 12
Air Quality Not available.
Flu Activity Not available.
METAR KGDV 302215Z AUTO 01012G15KT 10SM CLR 27/09 A2977 RMK AO1

10-Day Weather Forecast

×

Almanac

Astronomy

Aug. 30, 2015 Rise Set
Actual Time
Civil Twilight
Nautical Twilight
Astronomical Twilight
Moon
Length of Visible Light
Length of Day
Tomorrow will be .
, % of the Moon is Illuminated

Today's Extremes

State Highs State Lows

Community

WunderPhotos

Upload Photos

1,851,074 photos uploaded!

WunderBlogs® & News

Nearby

Air Quality

  Air Quality AQ Index Pollutant
Not available.

Snow Depth

Station Depth Elevation

Earthquake Activity

City Distance Mag. Time & Date
Minimum magnitude displayed is 2.5.

Coastal Water Temperatures

Place Temperature

Stations

Nearby Weather Stations

Station Location Temp. Windchill Dew Point Humidity Wind Precip. Elev Updated Type